Lake Cowichan, Canada
Current Conditions -  °F | °C
As of 9:00 AM on Saturday 22 Nov 2014 (Local Time) from CYCD Reporting Station
Scattered Clouds Scattered Clouds  
Wind Chill: 34°   Ceiling: Unl
Heat Index: 39°   Visibility: 20mi
Dew Point: 39°   Wind: 7mph
Humidity: 100%   Direction: 250°WSW
Pressure: 29.69"   Gusts: NA
Location:  48.82°N, 124.03°W
Report Text: CYCD 221700Z 25006KT 20SM FEW045 SCT220 04/04 A2969 RMK SC1CI2 SLP054
Loading
Personal Weather Stations






























Interactive Weather Map New forecast layout! Learn more

10-Day Weather Forecast

Advertisements
Track Severe Weather on mobile